sensor_id;sensor_type;location;lat;lon;timestamp;temperature;humidity
1700;DHT22;847;48.058;7.810;2023-05-13T00:00:38;12.40;99.00
1700;DHT22;847;48.058;7.810;2023-05-13T00:03:05;12.40;99.00
1700;DHT22;847;48.058;7.810;2023-05-13T00:05:32;12.50;99.00
1700;DHT22;847;48.058;7.810;2023-05-13T00:07:59;12.50;99.00
1700;DHT22;847;48.058;7.810;2023-05-13T00:10:31;12.50;99.00
1700;DHT22;847;48.058;7.810;2023-05-13T00:12:58;12.50;99.00
1700;DHT22;847;48.058;7.810;2023-05-13T00:15:25;12.50;99.00
1700;DHT22;847;48.058;7.810;2023-05-13T00:17:53;12.50;99.00
1700;DHT22;847;48.058;7.810;2023-05-13T00:20:20;12.40;99.00
1700;DHT22;847;48.058;7.810;2023-05-13T00:22:47;12.30;99.00
1700;DHT22;847;48.058;7.810;2023-05-13T00:25:14;12.20;99.00
1700;DHT22;847;48.058;7.810;2023-05-13T00:27:41;12.20;99.00
1700;DHT22;847;48.058;7.810;2023-05-13T00:30:08;12.20;99.00
1700;DHT22;847;48.058;7.810;2023-05-13T00:32:35;12.20;99.00
1700;DHT22;847;48.058;7.810;2023-05-13T00:35:03;12.30;99.00
1700;DHT22;847;48.058;7.810;2023-05-13T00:37:30;12.20;99.00
1700;DHT22;847;48.058;7.810;2023-05-13T00:39:57;12.20;99.00
1700;DHT22;847;48.058;7.810;2023-05-13T00:42:23;12.10;99.00
1700;DHT22;847;48.058;7.810;2023-05-13T00:44:51;12.10;99.00
1700;DHT22;847;48.058;7.810;2023-05-13T00:47:17;12.10;99.00
1700;DHT22;847;48.058;7.810;2023-05-13T00:49:44;12.20;99.00
1700;DHT22;847;48.058;7.810;2023-05-13T00:52:12;12.20;99.00
1700;DHT22;847;48.058;7.810;2023-05-13T00:54:39;12.30;99.00
1700;DHT22;847;48.058;7.810;2023-05-13T00:57:06;12.20;99.00
1700;DHT22;847;48.058;7.810;2023-05-13T00:59:33;12.20;99.00
1700;DHT22;847;48.058;7.810;2023-05-13T01:02:07;12.20;99.00
1700;DHT22;847;48.058;7.810;2023-05-13T01:04:42;12.10;99.00
1700;DHT22;847;48.058;7.810;2023-05-13T01:07:20;12.00;99.00
1700;DHT22;847;48.058;7.810;2023-05-13T01:09:54;12.00;99.00
1700;DHT22;847;48.058;7.810;2023-05-13T01:12:30;12.00;99.00
1700;DHT22;847;48.058;7.810;2023-05-13T01:15:03;12.10;99.00
1700;DHT22;847;48.058;7.810;2023-05-13T01:17:32;12.20;99.00
1700;DHT22;847;48.058;7.810;2023-05-13T01:20:02;12.20;99.00
1700;DHT22;847;48.058;7.810;2023-05-13T01:22:31;12.20;99.00
1700;DHT22;847;48.058;7.810;2023-05-13T01:24:58;12.10;99.00
1700;DHT22;847;48.058;7.810;2023-05-13T01:27:25;12.00;99.00
1700;DHT22;847;48.058;7.810;2023-05-13T01:29:52;12.00;99.00
1700;DHT22;847;48.058;7.810;2023-05-13T01:32:20;11.90;99.00
1700;DHT22;847;48.058;7.810;2023-05-13T01:34:49;11.80;99.00
1700;DHT22;847;48.058;7.810;2023-05-13T01:37:16;11.70;99.00
1700;DHT22;847;48.058;7.810;2023-05-13T01:39:45;11.60;99.00
1700;DHT22;847;48.058;7.810;2023-05-13T01:42:12;11.60;99.00
1700;DHT22;847;48.058;7.810;2023-05-13T01:44:39;11.60;99.00
1700;DHT22;847;48.058;7.810;2023-05-13T01:47:06;11.60;99.00
1700;DHT22;847;48.058;7.810;2023-05-13T01:49:32;11.60;99.00
1700;DHT22;847;48.058;7.810;2023-05-13T01:51:59;11.60;99.00
1700;DHT22;847;48.058;7.810;2023-05-13T01:54:26;11.60;99.00
1700;DHT22;847;48.058;7.810;2023-05-13T01:56:54;11.60;99.00
1700;DHT22;847;48.058;7.810;2023-05-13T01:59:21;11.50;99.00
1700;DHT22;847;48.058;7.810;2023-05-13T02:01:47;11.50;99.00
1700;DHT22;847;48.058;7.810;2023-05-13T02:04:14;11.50;99.00
1700;DHT22;847;48.058;7.810;2023-05-13T02:06:41;11.60;99.00
1700;DHT22;847;48.058;7.810;2023-05-13T02:09:07;11.60;99.00
1700;DHT22;847;48.058;7.810;2023-05-13T02:11:35;11.70;99.00
1700;DHT22;847;48.058;7.810;2023-05-13T02:14:03;11.60;99.00
1700;DHT22;847;48.058;7.810;2023-05-13T02:16:30;11.70;99.00
1700;DHT22;847;48.058;7.810;2023-05-13T02:18:57;11.70;99.00
1700;DHT22;847;48.058;7.810;2023-05-13T02:21:24;11.70;99.00
1700;DHT22;847;48.058;7.810;2023-05-13T02:23:51;11.70;99.00
1700;DHT22;847;48.058;7.810;2023-05-13T02:26:18;11.80;99.00
1700;DHT22;847;48.058;7.810;2023-05-13T02:28:45;11.90;99.00
1700;DHT22;847;48.058;7.810;2023-05-13T02:31:13;12.00;99.00
1700;DHT22;847;48.058;7.810;2023-05-13T02:33:40;12.10;99.00
1700;DHT22;847;48.058;7.810;2023-05-13T02:36:07;12.20;99.00
1700;DHT22;847;48.058;7.810;2023-05-13T02:38:33;12.20;99.00
1700;DHT22;847;48.058;7.810;2023-05-13T02:41:00;12.20;99.00
1700;DHT22;847;48.058;7.810;2023-05-13T02:43:27;12.20;99.00
1700;DHT22;847;48.058;7.810;2023-05-13T02:45:54;12.20;99.00
1700;DHT22;847;48.058;7.810;2023-05-13T02:48:22;12.30;99.00
1700;DHT22;847;48.058;7.810;2023-05-13T02:50:49;12.30;99.00
1700;DHT22;847;48.058;7.810;2023-05-13T02:53:16;12.30;99.00
1700;DHT22;847;48.058;7.810;2023-05-13T02:55:42;12.30;99.00
1700;DHT22;847;48.058;7.810;2023-05-13T02:58:09;12.20;99.00
1700;DHT22;847;48.058;7.810;2023-05-13T03:00:36;12.20;99.00
1700;DHT22;847;48.058;7.810;2023-05-13T03:03:02;12.10;99.00
1700;DHT22;847;48.058;7.810;2023-05-13T03:05:30;12.10;99.00
1700;DHT22;847;48.058;7.810;2023-05-13T03:07:57;12.20;99.00
1700;DHT22;847;48.058;7.810;2023-05-13T03:10:24;12.10;99.00
1700;DHT22;847;48.058;7.810;2023-05-13T03:12:51;12.20;99.00
1700;DHT22;847;48.058;7.810;2023-05-13T03:15:18;12.20;99.00
1700;DHT22;847;48.058;7.810;2023-05-13T03:17:44;12.20;99.00
1700;DHT22;847;48.058;7.810;2023-05-13T03:20:11;12.20;99.00
1700;DHT22;847;48.058;7.810;2023-05-13T03:22:39;12.30;99.00
1700;DHT22;847;48.058;7.810;2023-05-13T03:25:07;12.30;99.00
1700;DHT22;847;48.058;7.810;2023-05-13T03:27:33;12.30;99.00
1700;DHT22;847;48.058;7.810;2023-05-13T03:30:00;12.30;99.00
1700;DHT22;847;48.058;7.810;2023-05-13T03:32:27;12.30;99.00
1700;DHT22;847;48.058;7.810;2023-05-13T03:34:55;12.30;99.00
1700;DHT22;847;48.058;7.810;2023-05-13T03:37:22;12.30;99.00
1700;DHT22;847;48.058;7.810;2023-05-13T03:39:50;12.30;99.00
1700;DHT22;847;48.058;7.810;2023-05-13T03:42:17;12.20;99.00
1700;DHT22;847;48.058;7.810;2023-05-13T03:44:44;12.20;99.00
1700;DHT22;847;48.058;7.810;2023-05-13T03:47:11;12.10;99.00
1700;DHT22;847;48.058;7.810;2023-05-13T03:49:38;12.10;99.00
1700;DHT22;847;48.058;7.810;2023-05-13T03:52:04;12.10;99.00
1700;DHT22;847;48.058;7.810;2023-05-13T03:54:33;12.20;99.00
1700;DHT22;847;48.058;7.810;2023-05-13T03:57:01;12.20;99.00
1700;DHT22;847;48.058;7.810;2023-05-13T03:59:28;12.20;99.00
1700;DHT22;847;48.058;7.810;2023-05-13T04:01:54;12.10;99.00
1700;DHT22;847;48.058;7.810;2023-05-13T04:04:21;12.10;99.00
1700;DHT22;847;48.058;7.810;2023-05-13T04:06:48;12.20;99.00
1700;DHT22;847;48.058;7.810;2023-05-13T04:09:15;12.20;99.00
1700;DHT22;847;48.058;7.810;2023-05-13T04:11:41;12.20;99.00
1700;DHT22;847;48.058;7.810;2023-05-13T04:14:09;12.20;99.00
1700;DHT22;847;48.058;7.810;2023-05-13T04:16:36;12.30;99.00
1700;DHT22;847;48.058;7.810;2023-05-13T04:19:03;12.30;99.00
1700;DHT22;847;48.058;7.810;2023-05-13T04:21:30;12.30;99.00
1700;DHT22;847;48.058;7.810;2023-05-13T04:23:56;12.30;99.00
1700;DHT22;847;48.058;7.810;2023-05-13T04:26:24;12.30;99.00
1700;DHT22;847;48.058;7.810;2023-05-13T04:28:51;12.20;99.00
1700;DHT22;847;48.058;7.810;2023-05-13T04:31:19;12.20;99.00
1700;DHT22;847;48.058;7.810;2023-05-13T04:33:46;12.10;99.00
1700;DHT22;847;48.058;7.810;2023-05-13T04:36:13;12.20;99.00
1700;DHT22;847;48.058;7.810;2023-05-13T04:38:40;12.20;99.00
1700;DHT22;847;48.058;7.810;2023-05-13T04:41:06;12.30;99.00
1700;DHT22;847;48.058;7.810;2023-05-13T04:43:33;12.20;99.00
1700;DHT22;847;48.058;7.810;2023-05-13T04:46:00;12.20;99.00
1700;DHT22;847;48.058;7.810;2023-05-13T04:48:28;12.20;99.00
1700;DHT22;847;48.058;7.810;2023-05-13T04:50:55;12.20;99.00
1700;DHT22;847;48.058;7.810;2023-05-13T04:53:22;12.20;99.00
1700;DHT22;847;48.058;7.810;2023-05-13T04:55:49;12.10;99.00
1700;DHT22;847;48.058;7.810;2023-05-13T04:58:16;12.10;99.00
1700;DHT22;847;48.058;7.810;2023-05-13T05:00:43;12.10;99.00
1700;DHT22;847;48.058;7.810;2023-05-13T05:03:10;12.10;99.00
1700;DHT22;847;48.058;7.810;2023-05-13T05:05:38;12.20;99.00
1700;DHT22;847;48.058;7.810;2023-05-13T05:08:05;12.20;99.00
1700;DHT22;847;48.058;7.810;2023-05-13T05:10:31;12.20;99.00
1700;DHT22;847;48.058;7.810;2023-05-13T05:12:58;12.30;99.00
1700;DHT22;847;48.058;7.810;2023-05-13T05:15:25;12.20;99.00
1700;DHT22;847;48.058;7.810;2023-05-13T05:17:52;12.20;99.00
1700;DHT22;847;48.058;7.810;2023-05-13T05:20:19;12.20;99.00
1700;DHT22;847;48.058;7.810;2023-05-13T05:22:47;12.20;99.00
1700;DHT22;847;48.058;7.810;2023-05-13T05:25:14;12.20;99.00
1700;DHT22;847;48.058;7.810;2023-05-13T05:27:41;12.20;99.00
1700;DHT22;847;48.058;7.810;2023-05-13T05:30:10;12.20;99.00
1700;DHT22;847;48.058;7.810;2023-05-13T05:32:36;12.20;99.00
1700;DHT22;847;48.058;7.810;2023-05-13T05:35:04;12.20;99.00
1700;DHT22;847;48.058;7.810;2023-05-13T05:37:31;12.20;99.00
1700;DHT22;847;48.058;7.810;2023-05-13T05:39:59;12.20;99.00
1700;DHT22;847;48.058;7.810;2023-05-13T05:42:26;12.30;99.00
1700;DHT22;847;48.058;7.810;2023-05-13T05:44:52;12.30;99.00
1700;DHT22;847;48.058;7.810;2023-05-13T05:47:19;12.40;99.00
1700;DHT22;847;48.058;7.810;2023-05-13T05:49:46;12.30;99.00
1700;DHT22;847;48.058;7.810;2023-05-13T05:52:12;12.40;99.00
1700;DHT22;847;48.058;7.810;2023-05-13T05:54:39;12.40;99.00
1700;DHT22;847;48.058;7.810;2023-05-13T05:57:07;12.40;99.00
1700;DHT22;847;48.058;7.810;2023-05-13T05:59:34;12.40;99.00
1700;DHT22;847;48.058;7.810;2023-05-13T06:02:00;12.40;99.00
1700;DHT22;847;48.058;7.810;2023-05-13T06:04:28;12.40;99.00
1700;DHT22;847;48.058;7.810;2023-05-13T06:06:56;12.50;99.00
1700;DHT22;847;48.058;7.810;2023-05-13T06:09:23;12.50;99.00
1700;DHT22;847;48.058;7.810;2023-05-13T06:11:50;12.50;99.00
1700;DHT22;847;48.058;7.810;2023-05-13T06:14:18;12.50;99.00
1700;DHT22;847;48.058;7.810;2023-05-13T06:16:44;12.50;99.00
1700;DHT22;847;48.058;7.810;2023-05-13T06:19:11;12.50;99.00
1700;DHT22;847;48.058;7.810;2023-05-13T06:21:38;12.60;99.00
1700;DHT22;847;48.058;7.810;2023-05-13T06:24:06;12.60;99.00
1700;DHT22;847;48.058;7.810;2023-05-13T06:26:33;12.50;99.00
1700;DHT22;847;48.058;7.810;2023-05-13T06:29:00;12.60;99.00
1700;DHT22;847;48.058;7.810;2023-05-13T06:31:28;12.60;99.00
1700;DHT22;847;48.058;7.810;2023-05-13T06:33:55;12.60;99.00
1700;DHT22;847;48.058;7.810;2023-05-13T06:36:21;12.60;99.00
1700;DHT22;847;48.058;7.810;2023-05-13T06:38:48;12.70;99.00
1700;DHT22;847;48.058;7.810;2023-05-13T06:41:15;12.80;99.00
1700;DHT22;847;48.058;7.810;2023-05-13T06:43:41;12.80;99.00
1700;DHT22;847;48.058;7.810;2023-05-13T06:46:10;12.80;99.00
1700;DHT22;847;48.058;7.810;2023-05-13T06:48:38;12.80;99.00
1700;DHT22;847;48.058;7.810;2023-05-13T06:51:05;12.80;99.00
1700;DHT22;847;48.058;7.810;2023-05-13T06:53:32;12.80;99.00
1700;DHT22;847;48.058;7.810;2023-05-13T06:55:58;12.80;99.00
1700;DHT22;847;48.058;7.810;2023-05-13T06:58:25;12.80;99.00
1700;DHT22;847;48.058;7.810;2023-05-13T07:00:52;12.80;99.00
1700;DHT22;847;48.058;7.810;2023-05-13T07:03:19;12.80;99.00
1700;DHT22;847;48.058;7.810;2023-05-13T07:05:47;12.80;99.00
1700;DHT22;847;48.058;7.810;2023-05-13T07:08:14;12.80;99.00
1700;DHT22;847;48.058;7.810;2023-05-13T07:10:42;12.90;99.00
1700;DHT22;847;48.058;7.810;2023-05-13T07:13:09;12.90;99.00
1700;DHT22;847;48.058;7.810;2023-05-13T07:15:36;12.90;99.00
1700;DHT22;847;48.058;7.810;2023-05-13T07:18:03;13.00;99.00
1700;DHT22;847;48.058;7.810;2023-05-13T07:20:30;13.00;99.00
1700;DHT22;847;48.058;7.810;2023-05-13T07:22:58;13.00;99.00
1700;DHT22;847;48.058;7.810;2023-05-13T07:25:25;13.00;99.00
1700;DHT22;847;48.058;7.810;2023-05-13T07:27:52;13.00;99.00
1700;DHT22;847;48.058;7.810;2023-05-13T07:30:19;13.00;99.00
1700;DHT22;847;48.058;7.810;2023-05-13T07:32:45;13.00;99.00
1700;DHT22;847;48.058;7.810;2023-05-13T07:35:12;13.00;99.00
1700;DHT22;847;48.058;7.810;2023-05-13T07:37:41;13.00;99.00
1700;DHT22;847;48.058;7.810;2023-05-13T07:40:10;13.00;99.00
1700;DHT22;847;48.058;7.810;2023-05-13T07:42:37;13.00;99.00
1700;DHT22;847;48.058;7.810;2023-05-13T07:45:05;13.00;99.00
1700;DHT22;847;48.058;7.810;2023-05-13T07:47:32;13.00;99.00
1700;DHT22;847;48.058;7.810;2023-05-13T07:49:59;13.00;99.00
1700;DHT22;847;48.058;7.810;2023-05-13T07:52:26;13.00;99.00
1700;DHT22;847;48.058;7.810;2023-05-13T07:54:53;13.10;99.00
1700;DHT22;847;48.058;7.810;2023-05-13T07:57:21;13.10;99.00
1700;DHT22;847;48.058;7.810;2023-05-13T07:59:48;13.10;99.00
1700;DHT22;847;48.058;7.810;2023-05-13T08:02:15;13.10;99.00
1700;DHT22;847;48.058;7.810;2023-05-13T08:04:41;13.20;99.00
1700;DHT22;847;48.058;7.810;2023-05-13T08:07:09;13.20;99.00
1700;DHT22;847;48.058;7.810;2023-05-13T08:09:36;13.20;99.00
1700;DHT22;847;48.058;7.810;2023-05-13T08:12:03;13.20;99.00
1700;DHT22;847;48.058;7.810;2023-05-13T08:14:31;13.20;99.00
1700;DHT22;847;48.058;7.810;2023-05-13T08:16:58;13.30;99.00
1700;DHT22;847;48.058;7.810;2023-05-13T08:19:25;13.30;99.00
1700;DHT22;847;48.058;7.810;2023-05-13T08:21:52;13.40;99.00
1700;DHT22;847;48.058;7.810;2023-05-13T08:24:18;13.50;99.00
1700;DHT22;847;48.058;7.810;2023-05-13T08:26:45;13.50;99.00
1700;DHT22;847;48.058;7.810;2023-05-13T08:29:12;13.60;99.00
1700;DHT22;847;48.058;7.810;2023-05-13T08:31:41;13.60;99.00
1700;DHT22;847;48.058;7.810;2023-05-13T08:34:08;13.70;99.00
1700;DHT22;847;48.058;7.810;2023-05-13T08:36:35;13.80;99.00
1700;DHT22;847;48.058;7.810;2023-05-13T08:39:01;13.80;99.00
1700;DHT22;847;48.058;7.810;2023-05-13T08:41:29;14.00;99.00
1700;DHT22;847;48.058;7.810;2023-05-13T08:43:57;14.00;99.00
1700;DHT22;847;48.058;7.810;2023-05-13T08:46:26;14.10;99.00
1700;DHT22;847;48.058;7.810;2023-05-13T08:48:55;14.10;99.00
1700;DHT22;847;48.058;7.810;2023-05-13T08:51:22;14.10;99.00
1700;DHT22;847;48.058;7.810;2023-05-13T08:53:50;14.20;99.00
1700;DHT22;847;48.058;7.810;2023-05-13T08:56:17;14.30;99.00
1700;DHT22;847;48.058;7.810;2023-05-13T08:58:44;14.40;99.00
1700;DHT22;847;48.058;7.810;2023-05-13T09:01:11;14.40;99.00
1700;DHT22;847;48.058;7.810;2023-05-13T09:03:46;14.40;99.00
1700;DHT22;847;48.058;7.810;2023-05-13T09:06:17;14.40;99.00
1700;DHT22;847;48.058;7.810;2023-05-13T09:08:44;14.50;99.00
1700;DHT22;847;48.058;7.810;2023-05-13T09:11:11;14.50;99.00
1700;DHT22;847;48.058;7.810;2023-05-13T09:13:38;14.50;99.00
1700;DHT22;847;48.058;7.810;2023-05-13T09:16:05;14.60;99.00
1700;DHT22;847;48.058;7.810;2023-05-13T09:18:32;14.70;99.00
1700;DHT22;847;48.058;7.810;2023-05-13T09:21:22;14.70;99.00
1700;DHT22;847;48.058;7.810;2023-05-13T09:23:49;14.80;99.00
1700;DHT22;847;48.058;7.810;2023-05-13T09:26:25;14.80;99.00
1700;DHT22;847;48.058;7.810;2023-05-13T09:29:13;14.80;99.00
1700;DHT22;847;48.058;7.810;2023-05-13T09:31:41;14.90;99.00
1700;DHT22;847;48.058;7.810;2023-05-13T09:34:07;14.80;99.00
1700;DHT22;847;48.058;7.810;2023-05-13T09:36:35;14.80;99.00
1700;DHT22;847;48.058;7.810;2023-05-13T09:39:03;14.80;99.00
1700;DHT22;847;48.058;7.810;2023-05-13T09:41:30;14.80;99.00
1700;DHT22;847;48.058;7.810;2023-05-13T09:43:57;14.90;99.00
1700;DHT22;847;48.058;7.810;2023-05-13T09:46:24;14.90;99.00
1700;DHT22;847;48.058;7.810;2023-05-13T09:48:51;15.00;99.00
1700;DHT22;847;48.058;7.810;2023-05-13T09:51:24;14.90;99.00
1700;DHT22;847;48.058;7.810;2023-05-13T09:53:53;15.00;99.00
1700;DHT22;847;48.058;7.810;2023-05-13T09:56:21;15.00;99.00
1700;DHT22;847;48.058;7.810;2023-05-13T09:58:50;15.10;99.00
1700;DHT22;847;48.058;7.810;2023-05-13T10:01:17;15.20;99.00
1700;DHT22;847;48.058;7.810;2023-05-13T10:03:45;15.30;99.00
1700;DHT22;847;48.058;7.810;2023-05-13T10:06:12;15.30;99.00
1700;DHT22;847;48.058;7.810;2023-05-13T10:08:40;15.30;99.00
1700;DHT22;847;48.058;7.810;2023-05-13T10:11:09;15.40;99.00
1700;DHT22;847;48.058;7.810;2023-05-13T10:13:37;15.50;99.00
1700;DHT22;847;48.058;7.810;2023-05-13T10:16:05;15.50;99.00
1700;DHT22;847;48.058;7.810;2023-05-13T10:18:32;15.60;99.00
1700;DHT22;847;48.058;7.810;2023-05-13T10:21:00;15.60;99.00
1700;DHT22;847;48.058;7.810;2023-05-13T10:23:28;15.70;99.00
1700;DHT22;847;48.058;7.810;2023-05-13T10:25:58;15.70;99.00
1700;DHT22;847;48.058;7.810;2023-05-13T10:28:26;15.60;99.00
1700;DHT22;847;48.058;7.810;2023-05-13T10:30:53;15.60;99.00
1700;DHT22;847;48.058;7.810;2023-05-13T10:33:20;15.70;99.00
1700;DHT22;847;48.058;7.810;2023-05-13T10:35:56;15.80;99.00
1700;DHT22;847;48.058;7.810;2023-05-13T10:38:39;15.80;99.00
1700;DHT22;847;48.058;7.810;2023-05-13T10:41:10;15.90;99.00
1700;DHT22;847;48.058;7.810;2023-05-13T10:43:40;16.00;99.00
1700;DHT22;847;48.058;7.810;2023-05-13T10:46:11;16.00;99.00
1700;DHT22;847;48.058;7.810;2023-05-13T10:48:39;16.20;99.00
1700;DHT22;847;48.058;7.810;2023-05-13T10:51:07;16.40;99.00
1700;DHT22;847;48.058;7.810;2023-05-13T10:53:41;16.50;98.30
1700;DHT22;847;48.058;7.810;2023-05-13T10:56:08;16.60;98.00
1700;DHT22;847;48.058;7.810;2023-05-13T10:58:35;16.60;95.20
1700;DHT22;847;48.058;7.810;2023-05-13T11:01:14;16.70;95.70
1700;DHT22;847;48.058;7.810;2023-05-13T11:03:51;16.90;94.60
1700;DHT22;847;48.058;7.810;2023-05-13T11:06:19;17.00;94.10
1700;DHT22;847;48.058;7.810;2023-05-13T11:08:47;17.10;92.90
1700;DHT22;847;48.058;7.810;2023-05-13T11:11:25;17.20;93.50
1700;DHT22;847;48.058;7.810;2023-05-13T11:13:54;17.30;91.70
1700;DHT22;847;48.058;7.810;2023-05-13T11:16:22;17.20;92.20
1700;DHT22;847;48.058;7.810;2023-05-13T11:18:50;17.20;90.80
1700;DHT22;847;48.058;7.810;2023-05-13T11:21:24;17.30;90.40
1700;DHT22;847;48.058;7.810;2023-05-13T11:23:56;17.30;90.40
1700;DHT22;847;48.058;7.810;2023-05-13T11:26:23;17.30;90.40
1700;DHT22;847;48.058;7.810;2023-05-13T11:28:54;17.40;89.50
1700;DHT22;847;48.058;7.810;2023-05-13T11:31:24;17.40;87.50
1700;DHT22;847;48.058;7.810;2023-05-13T11:34:08;17.40;87.50
1700;DHT22;847;48.058;7.810;2023-05-13T11:36:37;17.40;88.60
1700;DHT22;847;48.058;7.810;2023-05-13T11:39:05;17.50;87.20
1700;DHT22;847;48.058;7.810;2023-05-13T11:41:32;17.50;84.40
1700;DHT22;847;48.058;7.810;2023-05-13T11:43:59;17.40;84.70
1700;DHT22;847;48.058;7.810;2023-05-13T11:46:29;17.50;84.00
1700;DHT22;847;48.058;7.810;2023-05-13T11:48:55;17.50;84.30
1700;DHT22;847;48.058;7.810;2023-05-13T11:51:22;17.60;84.10
1700;DHT22;847;48.058;7.810;2023-05-13T11:53:49;17.30;82.30
1700;DHT22;847;48.058;7.810;2023-05-13T11:56:17;17.40;83.70
1700;DHT22;847;48.058;7.810;2023-05-13T11:58:44;17.40;83.40
1700;DHT22;847;48.058;7.810;2023-05-13T12:01:13;17.40;83.70
1700;DHT22;847;48.058;7.810;2023-05-13T12:03:41;17.30;82.40
1700;DHT22;847;48.058;7.810;2023-05-13T12:06:08;17.40;84.60
1700;DHT22;847;48.058;7.810;2023-05-13T12:08:42;17.30;81.90
1700;DHT22;847;48.058;7.810;2023-05-13T12:11:10;17.30;82.70
1700;DHT22;847;48.058;7.810;2023-05-13T12:13:38;17.30;83.50
1700;DHT22;847;48.058;7.810;2023-05-13T12:16:06;17.40;84.60
1700;DHT22;847;48.058;7.810;2023-05-13T12:18:33;17.40;82.40
1700;DHT22;847;48.058;7.810;2023-05-13T12:21:14;17.40;83.00
1700;DHT22;847;48.058;7.810;2023-05-13T12:23:41;17.60;83.70
1700;DHT22;847;48.058;7.810;2023-05-13T12:26:08;17.70;83.20
1700;DHT22;847;48.058;7.810;2023-05-13T12:28:35;17.80;83.50
1700;DHT22;847;48.058;7.810;2023-05-13T12:31:03;17.60;82.60
1700;DHT22;847;48.058;7.810;2023-05-13T12:33:32;17.40;83.70
1700;DHT22;847;48.058;7.810;2023-05-13T12:36:16;17.30;82.60
1700;DHT22;847;48.058;7.810;2023-05-13T12:38:58;17.40;83.40
1700;DHT22;847;48.058;7.810;2023-05-13T12:41:28;17.20;82.60
1700;DHT22;847;48.058;7.810;2023-05-13T12:43:59;17.30;82.60
1700;DHT22;847;48.058;7.810;2023-05-13T12:46:27;17.20;82.60
1700;DHT22;847;48.058;7.810;2023-05-13T12:48:55;17.40;82.70
1700;DHT22;847;48.058;7.810;2023-05-13T12:51:24;17.50;80.50
1700;DHT22;847;48.058;7.810;2023-05-13T12:53:52;17.50;81.20
1700;DHT22;847;48.058;7.810;2023-05-13T12:56:19;17.50;81.10
1700;DHT22;847;48.058;7.810;2023-05-13T12:58:48;17.70;82.90
1700;DHT22;847;48.058;7.810;2023-05-13T13:01:14;17.90;81.10
1700;DHT22;847;48.058;7.810;2023-05-13T13:03:41;18.00;80.30
1700;DHT22;847;48.058;7.810;2023-05-13T13:06:08;18.00;81.30
1700;DHT22;847;48.058;7.810;2023-05-13T13:08:37;18.10;80.50
1700;DHT22;847;48.058;7.810;2023-05-13T13:11:04;18.10;79.50
1700;DHT22;847;48.058;7.810;2023-05-13T13:13:31;18.10;81.70
1700;DHT22;847;48.058;7.810;2023-05-13T13:15:58;18.30;80.20
1700;DHT22;847;48.058;7.810;2023-05-13T13:18:25;18.20;80.20
1700;DHT22;847;48.058;7.810;2023-05-13T13:20:52;18.10;79.80
1700;DHT22;847;48.058;7.810;2023-05-13T13:23:19;18.10;79.50
1700;DHT22;847;48.058;7.810;2023-05-13T13:25:47;17.90;80.80
1700;DHT22;847;48.058;7.810;2023-05-13T13:28:14;18.00;81.50
1700;DHT22;847;48.058;7.810;2023-05-13T13:30:41;18.10;81.70
1700;DHT22;847;48.058;7.810;2023-05-13T13:33:12;18.20;81.60
1700;DHT22;847;48.058;7.810;2023-05-13T13:35:41;18.10;78.70
1700;DHT22;847;48.058;7.810;2023-05-13T13:38:07;18.10;79.50
1700;DHT22;847;48.058;7.810;2023-05-13T13:40:34;18.30;80.10
1700;DHT22;847;48.058;7.810;2023-05-13T13:43:04;18.20;79.80
1700;DHT22;847;48.058;7.810;2023-05-13T13:45:31;18.20;80.80
1700;DHT22;847;48.058;7.810;2023-05-13T13:47:58;18.20;81.30
1700;DHT22;847;48.058;7.810;2023-05-13T13:50:26;18.30;81.20
1700;DHT22;847;48.058;7.810;2023-05-13T13:52:52;18.50;81.10
1700;DHT22;847;48.058;7.810;2023-05-13T13:55:20;18.20;80.80
1700;DHT22;847;48.058;7.810;2023-05-13T13:57:47;18.00;81.60
1700;DHT22;847;48.058;7.810;2023-05-13T14:00:16;18.10;80.70
1700;DHT22;847;48.058;7.810;2023-05-13T14:02:43;18.20;82.80
1700;DHT22;847;48.058;7.810;2023-05-13T14:05:10;18.30;81.00
1700;DHT22;847;48.058;7.810;2023-05-13T14:07:37;18.10;81.50
1700;DHT22;847;48.058;7.810;2023-05-13T14:10:05;17.90;81.70
1700;DHT22;847;48.058;7.810;2023-05-13T14:12:32;17.90;82.00
1700;DHT22;847;48.058;7.810;2023-05-13T14:15:00;17.80;82.60
1700;DHT22;847;48.058;7.810;2023-05-13T14:17:28;17.90;82.10
1700;DHT22;847;48.058;7.810;2023-05-13T14:19:55;17.90;81.70
1700;DHT22;847;48.058;7.810;2023-05-13T14:22:21;17.80;81.90
1700;DHT22;847;48.058;7.810;2023-05-13T14:24:49;17.70;82.40
1700;DHT22;847;48.058;7.810;2023-05-13T14:27:16;17.60;82.20
1700;DHT22;847;48.058;7.810;2023-05-13T14:29:44;17.40;82.60
1700;DHT22;847;48.058;7.810;2023-05-13T14:32:11;17.40;82.90
1700;DHT22;847;48.058;7.810;2023-05-13T14:34:40;17.30;83.70
1700;DHT22;847;48.058;7.810;2023-05-13T14:37:06;17.20;84.50
1700;DHT22;847;48.058;7.810;2023-05-13T14:39:33;17.20;84.50
1700;DHT22;847;48.058;7.810;2023-05-13T14:42:00;17.50;84.20
1700;DHT22;847;48.058;7.810;2023-05-13T14:44:27;17.60;82.80
1700;DHT22;847;48.058;7.810;2023-05-13T14:46:54;17.60;81.00
1700;DHT22;847;48.058;7.810;2023-05-13T14:49:20;17.70;81.50
1700;DHT22;847;48.058;7.810;2023-05-13T14:51:49;17.70;80.70
1700;DHT22;847;48.058;7.810;2023-05-13T14:54:15;17.70;81.40
1700;DHT22;847;48.058;7.810;2023-05-13T14:56:43;17.60;81.60
1700;DHT22;847;48.058;7.810;2023-05-13T14:59:10;17.70;82.80
1700;DHT22;847;48.058;7.810;2023-05-13T15:01:36;17.70;81.70
1700;DHT22;847;48.058;7.810;2023-05-13T15:04:03;17.90;82.30
1700;DHT22;847;48.058;7.810;2023-05-13T15:06:30;18.00;82.10
1700;DHT22;847;48.058;7.810;2023-05-13T15:08:58;18.10;80.30
1700;DHT22;847;48.058;7.810;2023-05-13T15:11:25;18.10;80.00
1700;DHT22;847;48.058;7.810;2023-05-13T15:13:52;18.00;81.70
1700;DHT22;847;48.058;7.810;2023-05-13T15:16:19;18.00;80.40
1700;DHT22;847;48.058;7.810;2023-05-13T15:18:46;18.10;81.90
1700;DHT22;847;48.058;7.810;2023-05-13T15:21:14;18.10;80.40
1700;DHT22;847;48.058;7.810;2023-05-13T15:23:40;18.10;80.90
1700;DHT22;847;48.058;7.810;2023-05-13T15:26:08;18.00;80.80
1700;DHT22;847;48.058;7.810;2023-05-13T15:28:35;18.00;80.80
1700;DHT22;847;48.058;7.810;2023-05-13T15:31:02;18.00;80.20
1700;DHT22;847;48.058;7.810;2023-05-13T15:33:29;17.90;79.60
1700;DHT22;847;48.058;7.810;2023-05-13T15:35:56;17.80;80.00
1700;DHT22;847;48.058;7.810;2023-05-13T15:38:23;17.80;79.70
1700;DHT22;847;48.058;7.810;2023-05-13T15:40:50;17.80;79.20
1700;DHT22;847;48.058;7.810;2023-05-13T15:43:18;17.70;80.20
1700;DHT22;847;48.058;7.810;2023-05-13T15:45:45;17.70;79.80
1700;DHT22;847;48.058;7.810;2023-05-13T15:48:12;17.80;80.00
1700;DHT22;847;48.058;7.810;2023-05-13T15:50:38;17.80;80.30
1700;DHT22;847;48.058;7.810;2023-05-13T15:53:05;17.80;80.80
1700;DHT22;847;48.058;7.810;2023-05-13T15:55:32;17.70;80.00
1700;DHT22;847;48.058;7.810;2023-05-13T15:57:58;17.50;80.10
1700;DHT22;847;48.058;7.810;2023-05-13T16:00:27;17.50;80.40
1700;DHT22;847;48.058;7.810;2023-05-13T16:02:53;17.40;81.30
1700;DHT22;847;48.058;7.810;2023-05-13T16:05:20;17.50;80.10
1700;DHT22;847;48.058;7.810;2023-05-13T16:07:47;17.60;80.40
1700;DHT22;847;48.058;7.810;2023-05-13T16:10:14;17.50;79.80
1700;DHT22;847;48.058;7.810;2023-05-13T16:12:40;17.50;79.60
1700;DHT22;847;48.058;7.810;2023-05-13T16:15:08;17.40;79.40
1700;DHT22;847;48.058;7.810;2023-05-13T16:17:36;17.40;80.90
1700;DHT22;847;48.058;7.810;2023-05-13T16:20:04;17.60;79.10